Time;durP1;ratioP1;P1;durP2;ratioP2;P2;SDS_P1;SDS_P2;PMS_P1;PMS_P2;Temp;Humidity;BMP_temperature;BMP_pressure;BME280_temperature;BME280_humidity;BME280_pressure;Samples;Min_cycle;Max_cycle;Signal;HPM_P1;HPM_P2
2023/12/25 00:00:05;;;;;;;5.28;4.15;;;4.30;99.90;;;;;;5034086;28;20479;-75
2023/12/25 00:02:32;;;;;;;7.05;4.97;;;4.30;99.90;;;;;;5032829;28;20137;-75
2023/12/25 00:04:58;;;;;;;4.47;4.03;;;4.40;99.90;;;;;;5032585;28;20025;-75
2023/12/25 00:07:24;;;;;;;8.57;5.38;;;4.30;99.90;;;;;;5032766;28;20385;-75
2023/12/25 00:09:49;;;;;;;6.47;4.50;;;4.30;99.90;;;;;;5033708;28;20083;-75
2023/12/25 00:12:15;;;;;;;5.25;4.25;;;4.40;99.90;;;;;;5032802;28;20067;-76
2023/12/25 00:14:41;;;;;;;8.40;5.97;;;4.40;99.90;;;;;;5030713;28;20017;-75
2023/12/25 00:17:06;;;;;;;5.20;4.43;;;4.40;99.90;;;;;;5032633;28;20151;-75
2023/12/25 00:19:32;;;;;;;5.22;4.30;;;4.40;99.90;;;;;;5032301;28;21408;-76
2023/12/25 00:21:58;;;;;;;8.27;5.05;;;4.40;99.90;;;;;;5033908;28;20021;-76
2023/12/25 00:24:24;;;;;;;4.55;4.00;;;4.40;99.90;;;;;;5031918;28;20033;-75
2023/12/25 00:26:50;;;;;;;5.75;3.95;;;4.40;99.90;;;;;;5033465;28;20096;-76
2023/12/25 00:29:15;;;;;;;5.95;3.90;;;4.40;99.90;;;;;;5033165;28;20495;-76
2023/12/25 00:31:41;;;;;;;7.75;5.53;;;4.40;99.90;;;;;;5033349;28;20048;-76
2023/12/25 00:34:08;;;;;;;3.63;3.22;;;4.40;99.90;;;;;;5033496;28;20383;-75
2023/12/25 00:36:33;;;;;;;5.18;3.70;;;4.40;99.90;;;;;;5032309;28;20048;-75
2023/12/25 00:38:59;;;;;;;7.80;5.38;;;4.40;99.90;;;;;;5033243;28;20069;-75
2023/12/25 00:41:30;;;;;;;7.07;4.20;;;4.40;99.90;;;;;;5033501;28;20108;-75
2023/12/25 00:43:57;;;;;;;8.77;5.80;;;4.40;99.90;;;;;;5033298;28;20045;-77
2023/12/25 00:46:23;;;;;;;11.15;6.18;;;4.40;99.90;;;;;;5031993;28;20566;-76
2023/12/25 00:48:49;;;;;;;8.68;5.38;;;4.40;99.90;;;;;;5031445;28;20483;-75
2023/12/25 00:51:15;;;;;;;6.05;4.15;;;4.40;99.90;;;;;;5031948;28;20068;-75
2023/12/25 00:53:40;;;;;;;8.18;5.15;;;4.40;99.90;;;;;;5032906;28;20029;-76
2023/12/25 00:56:07;;;;;;;4.85;4.40;;;4.40;99.90;;;;;;5032075;28;20026;-75
2023/12/25 00:58:32;;;;;;;3.60;3.25;;;4.40;99.90;;;;;;5031528;28;20427;-75
2023/12/25 01:00:58;;;;;;;6.22;4.28;;;4.40;99.90;;;;;;5031954;28;20014;-76
2023/12/25 01:03:24;;;;;;;5.80;4.53;;;4.40;99.90;;;;;;5032744;28;20032;-75
2023/12/25 01:05:49;;;;;;;8.57;5.60;;;4.40;99.90;;;;;;5031874;28;20017;-76
2023/12/25 01:08:15;;;;;;;4.63;4.10;;;4.40;99.90;;;;;;5032723;28;20053;-77
2023/12/25 01:10:41;;;;;;;8.82;5.85;;;4.40;99.90;;;;;;5032900;28;20045;-76
2023/12/25 01:13:06;;;;;;;5.00;4.13;;;4.40;99.90;;;;;;5032800;28;20476;-75
2023/12/25 01:15:32;;;;;;;5.85;4.40;;;4.40;99.90;;;;;;5033026;28;20028;-76
2023/12/25 01:17:57;;;;;;;7.60;5.50;;;4.50;99.90;;;;;;5031440;28;20406;-75
2023/12/25 01:20:23;;;;;;;7.88;5.47;;;4.50;99.90;;;;;;5031695;28;20017;-76
2023/12/25 01:22:48;;;;;;;13.48;9.15;;;4.50;99.90;;;;;;5032278;28;20067;-75
2023/12/25 01:25:14;;;;;;;6.68;4.80;;;4.40;99.90;;;;;;5031463;28;20433;-74
2023/12/25 01:27:41;;;;;;;7.47;4.65;;;4.50;99.90;;;;;;5032331;28;20063;-75
2023/12/25 01:30:11;;;;;;;7.88;5.13;;;4.50;99.90;;;;;;5033010;28;20041;-75
2023/12/25 01:32:37;;;;;;;5.22;3.92;;;4.50;99.90;;;;;;5032270;28;20049;-74
2023/12/25 01:35:02;;;;;;;5.05;4.57;;;4.40;99.90;;;;;;5032716;28;20030;-76
2023/12/25 01:37:28;;;;;;;5.72;4.82;;;4.50;99.90;;;;;;5032144;28;20022;-76
2023/12/25 01:39:54;;;;;;;5.05;4.38;;;4.50;99.90;;;;;;5032632;28;20048;-75
2023/12/25 01:42:19;;;;;;;4.90;4.40;;;4.50;99.90;;;;;;5031088;28;20028;-75
2023/12/25 01:44:47;;;;;;;5.57;4.07;;;4.50;99.90;;;;;;5032446;28;20029;-75
2023/12/25 01:47:15;;;;;;;5.55;4.43;;;4.50;99.90;;;;;;5032282;28;20052;-76
2023/12/25 01:49:41;;;;;;;3.72;3.08;;;4.50;99.90;;;;;;5032437;28;20113;-76
2023/12/25 01:52:07;;;;;;;5.55;3.50;;;4.50;99.90;;;;;;5031158;28;20056;-75
2023/12/25 01:54:34;;;;;;;3.88;3.50;;;4.60;99.90;;;;;;5031961;28;20028;-75
2023/12/25 01:57:00;;;;;;;7.35;3.03;;;4.60;99.90;;;;;;5030894;28;20032;-75
2023/12/25 01:59:29;;;;;;;8.15;5.78;;;4.60;99.90;;;;;;5031159;28;20025;-75
2023/12/25 02:01:57;;;;;;;5.88;4.13;;;4.60;99.90;;;;;;5035291;28;20440;-76
2023/12/25 02:04:24;;;;;;;4.95;3.17;;;4.60;99.90;;;;;;5035301;28;20032;-76
2023/12/25 02:06:51;;;;;;;3.90;2.65;;;4.60;99.90;;;;;;5036203;28;20017;-74
2023/12/25 02:09:17;;;;;;;3.25;2.50;;;4.60;99.90;;;;;;5036435;28;20021;-74
2023/12/25 02:11:43;;;;;;;3.90;2.58;;;4.60;99.90;;;;;;5035877;28;20013;-74
2023/12/25 02:14:10;;;;;;;2.92;2.70;;;4.70;99.90;;;;;;5036165;28;20032;-74
2023/12/25 02:16:38;;;;;;;4.43;3.55;;;4.60;99.90;;;;;;5035956;28;20036;-75
2023/12/25 02:19:07;;;;;;;3.03;2.72;;;4.70;99.90;;;;;;5036244;28;20163;-74
2023/12/25 02:21:33;;;;;;;3.10;2.78;;;4.70;99.90;;;;;;5034613;28;20470;-74
2023/12/25 02:24:04;;;;;;;2.95;2.30;;;4.70;99.90;;;;;;5034807;28;20018;-74
2023/12/25 02:26:30;;;;;;;2.42;2.10;;;4.70;99.90;;;;;;5034482;28;20026;-75
2023/12/25 02:28:56;;;;;;;3.15;2.53;;;4.80;99.90;;;;;;5034818;28;20017;-76
2023/12/25 02:31:23;;;;;;;3.15;2.20;;;4.80;99.90;;;;;;5034204;28;20025;-76
2023/12/25 02:33:49;;;;;;;2.55;2.35;;;4.80;99.90;;;;;;5035948;28;20017;-74
2023/12/25 02:36:15;;;;;;;2.35;2.08;;;4.80;99.90;;;;;;5035436;28;20080;-76
2023/12/25 02:38:41;;;;;;;2.83;2.42;;;4.90;99.90;;;;;;5035727;28;20072;-76
2023/12/25 02:41:06;;;;;;;2.03;1.88;;;4.90;99.90;;;;;;5035617;28;20024;-76
2023/12/25 02:43:32;;;;;;;3.25;1.73;;;5.00;99.90;;;;;;5034303;28;20056;-75
2023/12/25 02:45:57;;;;;;;4.40;3.40;;;5.00;99.90;;;;;;5035334;28;20031;-75
2023/12/25 02:48:23;;;;;;;3.08;2.15;;;5.00;99.90;;;;;;5035727;28;20117;-75
2023/12/25 02:50:48;;;;;;;3.83;2.42;;;5.00;99.90;;;;;;5034280;28;20542;-75
2023/12/25 02:53:14;;;;;;;5.00;3.65;;;5.10;99.90;;;;;;5035566;28;20029;-75
2023/12/25 02:55:40;;;;;;;8.00;6.10;;;5.20;99.90;;;;;;5035382;28;20017;-76
2023/12/25 02:58:05;;;;;;;5.65;3.35;;;5.20;99.90;;;;;;5033982;28;20063;-75
2023/12/25 03:00:31;;;;;;;2.92;2.13;;;5.20;99.90;;;;;;5027342;28;20025;-75
2023/12/25 03:02:56;;;;;;;3.05;2.85;;;5.20;99.90;;;;;;5034933;28;20036;-76
2023/12/25 03:05:22;;;;;;;4.28;3.22;;;5.20;99.90;;;;;;5028677;28;20479;-76
2023/12/25 03:07:48;;;;;;;6.20;4.85;;;5.20;99.90;;;;;;5034986;28;20029;-76
2023/12/25 03:10:13;;;;;;;3.47;2.67;;;5.30;99.90;;;;;;5033894;28;20045;-76
2023/12/25 03:12:39;;;;;;;2.63;2.20;;;5.30;99.90;;;;;;5034193;28;20029;-75
2023/12/25 03:15:05;;;;;;;1.88;1.77;;;5.30;99.90;;;;;;5035037;28;20013;-76
2023/12/25 03:17:31;;;;;;;1.80;1.70;;;5.40;99.90;;;;;;5034730;28;20033;-76
2023/12/25 03:19:56;;;;;;;1.98;1.50;;;5.40;99.90;;;;;;5033474;28;20071;-76
2023/12/25 03:22:22;;;;;;;2.25;1.70;;;5.40;99.90;;;;;;5033721;28;20087;-75
2023/12/25 03:24:47;;;;;;;2.28;2.05;;;5.50;99.90;;;;;;5033511;28;20028;-75
2023/12/25 03:27:13;;;;;;;3.03;1.77;;;5.50;99.90;;;;;;5034648;28;20076;-76
2023/12/25 03:29:38;;;;;;;1.75;1.40;;;5.50;99.90;;;;;;5033562;28;20048;-75
2023/12/25 03:32:04;;;;;;;2.28;1.98;;;5.50;99.90;;;;;;5033514;28;20049;-75
2023/12/25 03:34:30;;;;;;;1.42;1.33;;;5.60;99.90;;;;;;5034588;28;20025;-75
2023/12/25 03:36:56;;;;;;;1.83;1.20;;;5.60;99.90;;;;;;5033059;28;20060;-74
2023/12/25 03:39:21;;;;;;;2.65;1.40;;;5.60;99.90;;;;;;5033325;28;20069;-74
2023/12/25 03:41:47;;;;;;;1.48;1.38;;;5.70;99.90;;;;;;5034214;28;20025;-75
2023/12/25 03:44:12;;;;;;;1.40;1.30;;;5.70;99.90;;;;;;5034800;28;20119;-74
2023/12/25 03:46:38;;;;;;;1.38;1.27;;;5.70;99.90;;;;;;5032958;28;20024;-74
2023/12/25 03:49:04;;;;;;;1.52;1.33;;;5.70;99.90;;;;;;5034610;28;20025;-76
2023/12/25 03:51:34;;;;;;;2.08;1.88;;;5.80;99.90;;;;;;5032942;28;20013;-76
2023/12/25 03:54:00;;;;;;;2.00;1.90;;;5.70;99.90;;;;;;5033201;28;20036;-76
2023/12/25 03:56:25;;;;;;;2.00;1.80;;;5.80;99.90;;;;;;5034243;28;20013;-75
2023/12/25 03:58:51;;;;;;;1.30;1.13;;;5.80;99.90;;;;;;5034092;28;20041;-75
2023/12/25 04:01:17;;;;;;;2.13;1.60;;;5.80;99.90;;;;;;5016357;28;20163;-74
2023/12/25 04:03:42;;;;;;;2.22;1.58;;;5.80;99.90;;;;;;5033185;28;20021;-75
2023/12/25 04:06:08;;;;;;;2.47;1.38;;;5.80;99.90;;;;;;5034036;28;20022;-74
2023/12/25 04:08:33;;;;;;;2.78;1.88;;;5.80;99.90;;;;;;5032627;28;20014;-74
2023/12/25 04:10:59;;;;;;;3.70;2.25;;;5.90;99.90;;;;;;5033977;28;20112;-74
2023/12/25 04:13:24;;;;;;;1.60;1.50;;;5.90;99.90;;;;;;5032770;28;20040;-75
2023/12/25 04:15:50;;;;;;;2.03;1.48;;;6.00;99.90;;;;;;5033446;28;20022;-74
2023/12/25 04:18:16;;;;;;;1.83;1.70;;;6.00;99.90;;;;;;5032628;28;20483;-76
2023/12/25 04:20:41;;;;;;;1.63;1.40;;;6.10;99.90;;;;;;5032387;28;20045;-75
2023/12/25 04:23:07;;;;;;;2.50;1.52;;;6.10;99.90;;;;;;5033777;28;20028;-76
2023/12/25 04:25:32;;;;;;;2.35;2.15;;;6.10;99.90;;;;;;5031367;28;20013;-74
2023/12/25 04:27:58;;;;;;;1.58;1.48;;;6.10;99.90;;;;;;5032199;28;20021;-74
2023/12/25 04:30:24;;;;;;;1.90;1.80;;;6.20;99.90;;;;;;5033529;28;20467;-76
2023/12/25 04:32:49;;;;;;;1.80;1.65;;;6.20;99.90;;;;;;5033409;28;20046;-75
2023/12/25 04:35:15;;;;;;;1.58;1.48;;;6.20;99.90;;;;;;5033424;28;20028;-74
2023/12/25 04:37:41;;;;;;;2.10;1.50;;;6.20;99.90;;;;;;5032161;28;20044;-74
2023/12/25 04:40:06;;;;;;;1.45;1.40;;;6.20;99.90;;;;;;5033294;28;20105;-75
2023/12/25 04:42:32;;;;;;;2.13;1.83;;;6.20;99.90;;;;;;5032247;28;20057;-76
2023/12/25 04:44:58;;;;;;;1.90;1.40;;;6.30;99.90;;;;;;5033436;28;20029;-74
2023/12/25 04:47:24;;;;;;;1.70;1.60;;;6.30;99.90;;;;;;5033412;28;20029;-76
2023/12/25 04:49:49;;;;;;;1.70;1.60;;;6.30;99.90;;;;;;5032108;28;20014;-76
2023/12/25 04:52:15;;;;;;;2.00;1.83;;;6.40;99.90;;;;;;5031978;28;20396;-75
2023/12/25 04:54:41;;;;;;;2.13;1.85;;;6.40;99.90;;;;;;5031768;28;20395;-74
2023/12/25 04:57:07;;;;;;;4.00;2.40;;;6.40;99.90;;;;;;5033080;28;20029;-76
2023/12/25 04:59:32;;;;;;;5.18;3.03;;;6.60;99.90;;;;;;5031499;28;20141;-75
2023/12/25 05:02:00;;;;;;;2.55;2.03;;;6.50;99.90;;;;;;5031790;28;20029;-75
2023/12/25 05:04:26;;;;;;;1.90;1.75;;;6.60;99.90;;;;;;5032952;28;20022;-74
2023/12/25 05:06:51;;;;;;;2.80;2.22;;;6.60;99.90;;;;;;5033037;28;20032;-75
2023/12/25 05:09:17;;;;;;;3.50;2.35;;;6.70;99.90;;;;;;5032687;28;20463;-75
2023/12/25 05:11:43;;;;;;;6.60;3.88;;;6.70;99.90;;;;;;5032962;28;20017;-76
2023/12/25 05:14:08;;;;;;;6.45;4.60;;;6.70;99.90;;;;;;5032251;28;20056;-76
2023/12/25 05:16:34;;;;;;;9.07;5.22;;;6.80;99.90;;;;;;5033052;28;20495;-74
2023/12/25 05:19:00;;;;;;;11.45;5.20;;;6.90;99.90;;;;;;5031355;28;20049;-76
2023/12/25 05:21:25;;;;;;;7.00;4.90;;;6.90;99.90;;;;;;5032904;28;20061;-76
2023/12/25 05:23:51;;;;;;;9.55;5.75;;;7.00;99.90;;;;;;5031429;28;20475;-76
2023/12/25 05:26:17;;;;;;;8.48;5.03;;;7.10;99.90;;;;;;5031605;28;20013;-75
2023/12/25 05:28:43;;;;;;;9.80;4.93;;;7.10;99.90;;;;;;5032240;28;20024;-75
2023/12/25 05:31:10;;;;;;;9.10;5.22;;;7.20;99.90;;;;;;5031682;28;20104;-75
2023/12/25 05:33:35;;;;;;;10.18;6.22;;;7.20;99.90;;;;;;5031168;28;20056;-75
2023/12/25 05:36:01;;;;;;;7.78;4.55;;;7.30;99.90;;;;;;5031165;28;20022;-76
2023/12/25 05:38:26;;;;;;;9.70;6.22;;;7.30;99.90;;;;;;5032424;28;20038;-75
2023/12/25 05:40:52;;;;;;;11.02;7.20;;;7.30;99.90;;;;;;5031545;28;20026;-75
2023/12/25 05:43:18;;;;;;;11.75;6.47;;;7.40;99.90;;;;;;5032553;28;20438;-74
2023/12/25 05:45:45;;;;;;;4.93;4.22;;;7.30;99.90;;;;;;5031302;28;20471;-76
2023/12/25 05:48:10;;;;;;;10.25;3.50;;;7.40;99.90;;;;;;5032236;28;20442;-75
2023/12/25 05:50:36;;;;;;;5.55;2.80;;;7.30;99.90;;;;;;5031051;28;20083;-75
2023/12/25 05:53:02;;;;;;;3.42;2.47;;;7.30;99.90;;;;;;5031096;28;20029;-76
2023/12/25 05:55:27;;;;;;;2.35;2.10;;;7.30;99.90;;;;;;5031261;28;20026;-74
2023/12/25 05:57:53;;;;;;;5.93;2.80;;;7.30;99.90;;;;;;5029343;28;20068;-75
2023/12/25 06:00:19;;;;;;;3.78;2.63;;;7.30;99.90;;;;;;5030814;28;20041;-74
2023/12/25 06:02:44;;;;;;;4.45;2.72;;;7.30;99.90;;;;;;5030961;28;20410;-75
2023/12/25 06:05:10;;;;;;;4.70;2.80;;;7.30;99.90;;;;;;5032484;28;20048;-74
2023/12/25 06:07:36;;;;;;;2.35;2.10;;;7.30;99.90;;;;;;5032141;28;20375;-76
2023/12/25 06:10:01;;;;;;;3.92;2.17;;;7.20;99.90;;;;;;5032077;28;20140;-74
2023/12/25 06:12:27;;;;;;;3.05;1.90;;;7.20;99.90;;;;;;5030676;28;20025;-74
2023/12/25 06:14:52;;;;;;;2.25;1.52;;;7.20;99.90;;;;;;5030721;28;20401;-76
2023/12/25 06:17:18;;;;;;;1.90;1.60;;;7.20;99.90;;;;;;5032020;28;20026;-75
2023/12/25 06:19:44;;;;;;;2.03;1.90;;;7.20;99.90;;;;;;5030955;28;20034;-74
2023/12/25 06:22:11;;;;;;;1.70;1.60;;;7.20;99.90;;;;;;5031737;28;20018;-74
2023/12/25 06:24:36;;;;;;;3.05;1.40;;;7.20;99.90;;;;;;5031088;28;20083;-75
2023/12/25 06:27:03;;;;;;;2.55;1.65;;;7.20;99.90;;;;;;5030869;28;20030;-74
2023/12/25 06:29:28;;;;;;;2.97;1.80;;;7.20;99.90;;;;;;5030921;28;20051;-75
2023/12/25 06:31:54;;;;;;;1.92;1.80;;;7.20;99.90;;;;;;5030382;28;20052;-75
2023/12/25 06:34:20;;;;;;;2.05;1.73;;;7.20;99.90;;;;;;5030911;28;20030;-76
2023/12/25 06:36:45;;;;;;;1.67;1.35;;;7.10;99.90;;;;;;5031866;28;20037;-75
2023/12/25 06:39:11;;;;;;;2.70;1.30;;;7.20;99.90;;;;;;5031568;28;20479;-75
2023/12/25 06:41:36;;;;;;;1.95;1.40;;;7.20;99.90;;;;;;5030151;28;20057;-75
2023/12/25 06:44:02;;;;;;;2.00;1.25;;;7.20;99.90;;;;;;5029814;28;20018;-75
2023/12/25 06:46:28;;;;;;;1.40;1.30;;;7.20;99.90;;;;;;5030043;28;20029;-75
2023/12/25 06:48:54;;;;;;;1.90;1.80;;;7.30;99.90;;;;;;5034851;28;20025;-76
2023/12/25 06:51:19;;;;;;;2.05;1.50;;;7.20;99.90;;;;;;5035412;28;20113;-75
2023/12/25 06:53:45;;;;;;;3.42;2.20;;;7.30;99.90;;;;;;5035225;28;20029;-75
2023/12/25 06:56:11;;;;;;;3.60;2.88;;;7.30;99.90;;;;;;5034752;28;20021;-75
2023/12/25 06:58:36;;;;;;;2.03;1.25;;;7.40;99.90;;;;;;5033778;28;20091;-75
2023/12/25 07:01:06;;;;;;;4.15;1.90;;;7.40;99.90;;;;;;5033485;28;20021;-74
2023/12/25 07:03:31;;;;;;;2.00;1.70;;;7.40;99.90;;;;;;5033166;28;20036;-76
2023/12/25 07:05:57;;;;;;;1.55;1.35;;;7.40;99.90;;;;;;5034022;28;20480;-76
2023/12/25 07:08:27;;;;;;;2.10;1.80;;;7.40;99.90;;;;;;5032989;28;20029;-75
2023/12/25 07:10:53;;;;;;;3.55;1.92;;;7.40;99.90;;;;;;5033099;28;20091;-75
2023/12/25 07:13:19;;;;;;;4.63;2.70;;;7.40;99.90;;;;;;5029898;28;20120;-74
2023/12/25 07:15:45;;;;;;;3.45;2.45;;;7.40;99.90;;;;;;5032099;28;20100;-74
2023/12/25 07:18:10;;;;;;;5.20;3.45;;;7.40;99.90;;;;;;5032863;28;20099;-74
2023/12/25 07:20:36;;;;;;;5.75;2.47;;;7.40;99.90;;;;;;5032910;28;20044;-74
2023/12/25 07:23:02;;;;;;;5.00;3.08;;;7.40;99.90;;;;;;5031274;28;20021;-75
2023/12/25 07:25:28;;;;;;;3.10;1.90;;;7.40;99.90;;;;;;5031398;28;20022;-74
2023/12/25 07:27:53;;;;;;;3.13;2.17;;;7.30;99.90;;;;;;5032692;28;20475;-74
2023/12/25 07:30:19;;;;;;;4.93;2.38;;;7.30;99.90;;;;;;5031459;28;20444;-75
2023/12/25 07:32:44;;;;;;;3.97;2.08;;;7.30;99.90;;;;;;5032307;28;20139;-74
2023/12/25 07:35:10;;;;;;;2.97;2.00;;;7.30;99.90;;;;;;5030855;28;20080;-74
2023/12/25 07:37:36;;;;;;;3.60;2.50;;;7.40;99.90;;;;;;5028397;28;20064;-74
2023/12/25 07:40:01;;;;;;;3.42;2.05;;;7.40;99.90;;;;;;5034355;28;20041;-74
2023/12/25 07:42:27;;;;;;;4.70;1.85;;;7.40;99.90;;;;;;5033119;28;20036;-76
2023/12/25 07:44:52;;;;;;;3.58;2.13;;;7.40;99.90;;;;;;5033056;28;20040;-75
2023/12/25 07:47:18;;;;;;;2.20;2.00;;;7.50;99.90;;;;;;5033084;28;20483;-75
2023/12/25 07:49:44;;;;;;;2.97;2.05;;;7.50;99.90;;;;;;5033977;28;20017;-75
2023/12/25 07:52:09;;;;;;;3.63;2.03;;;7.50;99.90;;;;;;5034250;28;20472;-75
2023/12/25 07:54:35;;;;;;;1.92;1.73;;;7.60;99.90;;;;;;5032890;28;20020;-75
2023/12/25 07:57:00;;;;;;;2.15;1.70;;;7.60;99.90;;;;;;5034042;28;20037;-75
2023/12/25 07:59:26;;;;;;;4.70;1.70;;;7.60;99.90;;;;;;5032566;28;20479;-76
2023/12/25 08:01:52;;;;;;;3.00;1.75;;;7.70;99.90;;;;;;5032681;28;20017;-76
2023/12/25 08:04:17;;;;;;;3.03;2.13;;;7.80;99.90;;;;;;5033750;28;20383;-76
2023/12/25 08:06:43;;;;;;;2.63;1.77;;;7.80;99.90;;;;;;5032133;28;20033;-75
2023/12/25 08:09:09;;;;;;;2.67;1.42;;;7.90;99.90;;;;;;5032465;28;20116;-76
2023/12/25 08:11:35;;;;;;;2.95;1.27;;;8.00;99.90;;;;;;5032663;28;20422;-76
2023/12/25 08:14:01;;;;;;;2.65;1.33;;;8.00;99.90;;;;;;5033699;28;20088;-75
2023/12/25 08:16:27;;;;;;;2.03;1.40;;;8.10;99.90;;;;;;5033624;28;20032;-76
2023/12/25 08:18:52;;;;;;;1.67;1.27;;;8.20;99.90;;;;;;5032063;28;20403;-76
2023/12/25 08:21:20;;;;;;;1.58;1.48;;;8.20;99.90;;;;;;5033717;28;20383;-75
2023/12/25 08:23:45;;;;;;;1.92;1.27;;;8.20;99.90;;;;;;5033307;28;20025;-75
2023/12/25 08:26:11;;;;;;;1.98;1.45;;;8.20;99.90;;;;;;5032279;28;20021;-75
2023/12/25 08:28:38;;;;;;;3.55;1.58;;;8.20;99.90;;;;;;5031852;28;20024;-75
2023/12/25 08:31:04;;;;;;;1.83;1.40;;;8.20;99.90;;;;;;5033410;28;20540;-74
2023/12/25 08:33:29;;;;;;;2.70;1.85;;;8.30;99.90;;;;;;5032006;28;20041;-76
2023/12/25 08:35:55;;;;;;;3.70;1.65;;;8.30;99.90;;;;;;5032376;28;20096;-75
2023/12/25 08:38:21;;;;;;;2.75;1.67;;;8.40;99.90;;;;;;5032652;28;20041;-75
2023/12/25 08:40:46;;;;;;;2.10;1.75;;;8.40;99.90;;;;;;5033177;28;20124;-75
2023/12/25 08:43:12;;;;;;;2.25;1.77;;;8.50;99.90;;;;;;5033173;28;20027;-74
2023/12/25 08:45:38;;;;;;;2.15;1.40;;;8.50;99.90;;;;;;5033479;28;20111;-75
2023/12/25 08:48:05;;;;;;;2.75;1.48;;;8.50;99.90;;;;;;5032915;28;20479;-75
2023/12/25 08:50:30;;;;;;;3.58;1.90;;;8.60;99.90;;;;;;5031403;28;20472;-76
2023/12/25 08:52:56;;;;;;;6.38;3.00;;;8.60;99.90;;;;;;5027533;28;20112;-76
2023/12/25 08:55:22;;;;;;;3.03;1.92;;;8.60;99.90;;;;;;5030938;28;20048;-76
2023/12/25 08:57:47;;;;;;;3.90;1.95;;;8.60;99.90;;;;;;5031446;28;20021;-76
2023/12/25 09:00:13;;;;;;;2.40;2.20;;;8.50;99.90;;;;;;5031631;28;20032;-74
2023/12/25 09:02:39;;;;;;;3.95;3.00;;;8.50;99.90;;;;;;5032672;28;20040;-76
2023/12/25 09:05:05;;;;;;;6.35;3.00;;;8.50;99.90;;;;;;5029496;28;20041;-78
2023/12/25 09:07:31;;;;;;;4.55;3.30;;;8.40;99.90;;;;;;5030950;28;20025;-76
2023/12/25 09:09:58;;;;;;;4.30;2.25;;;8.40;99.90;;;;;;5030663;28;20026;-76
2023/12/25 09:12:23;;;;;;;4.38;3.13;;;8.30;99.90;;;;;;5025131;28;20018;-76
2023/12/25 09:14:49;;;;;;;4.10;2.58;;;8.30;99.90;;;;;;5031450;28;20368;-77
2023/12/25 09:17:16;;;;;;;4.93;3.03;;;8.30;99.90;;;;;;5031070;28;20018;-76
2023/12/25 09:19:42;;;;;;;4.88;2.40;;;8.30;99.90;;;;;;5032643;28;20140;-75
2023/12/25 09:22:08;;;;;;;6.65;3.53;;;8.20;99.90;;;;;;5032658;28;20472;-77
2023/12/25 09:24:33;;;;;;;4.10;2.50;;;8.20;99.90;;;;;;5031143;28;20395;-76
2023/12/25 09:27:00;;;;;;;4.32;2.47;;;8.20;99.90;;;;;;5031079;28;20024;-75
2023/12/25 09:29:27;;;;;;;5.90;3.60;;;8.20;99.90;;;;;;5032556;28;20020;-76
2023/12/25 09:31:52;;;;;;;11.32;6.57;;;8.20;99.90;;;;;;5031239;28;20034;-76
2023/12/25 09:34:18;;;;;;;15.30;9.20;;;8.30;99.90;;;;;;5031540;28;20028;-75
2023/12/25 09:36:44;;;;;;;23.42;11.55;;;8.30;99.90;;;;;;5045709;28;20462;-76
2023/12/25 09:39:09;;;;;;;9.02;5.22;;;8.30;99.90;;;;;;5042189;28;20040;-76
2023/12/25 09:41:36;;;;;;;21.42;9.15;;;8.30;99.90;;;;;;5034377;28;20046;-78
2023/12/25 09:44:02;;;;;;;39.38;15.25;;;8.20;99.90;;;;;;5029467;28;20520;-76
2023/12/25 09:46:29;;;;;;;62.03;22.38;;;8.10;99.90;;;;;;5030362;28;20049;-76
2023/12/25 09:48:55;;;;;;;14.57;7.13;;;8.10;99.90;;;;;;5033158;28;20305;-76
2023/12/25 09:51:22;;;;;;;56.65;19.33;;;8.00;99.90;;;;;;5033004;28;20042;-77
2023/12/25 09:53:48;;;;;;;20.35;8.70;;;7.90;99.90;;;;;;5033137;28;20021;-76
2023/12/25 09:56:16;;;;;;;51.67;19.55;;;7.90;99.90;;;;;;5028305;28;20036;-77
2023/12/25 09:58:44;;;;;;;58.42;20.20;;;7.80;99.90;;;;;;5032424;28;20129;-76
2023/12/25 10:01:12;;;;;;;88.55;29.52;;;7.80;99.90;;;;;;5030758;28;20100;-76
2023/12/25 10:03:43;;;;;;;70.57;22.58;;;7.80;99.90;;;;;;5031126;28;20053;-76
2023/12/25 10:06:09;;;;;;;46.38;17.45;;;7.80;99.90;;;;;;5030953;28;20092;-76
2023/12/25 10:08:36;;;;;;;33.40;11.60;;;7.80;99.90;;;;;;5029747;28;20079;-76
2023/12/25 10:11:04;;;;;;;91.65;36.20;;;7.80;99.90;;;;;;5035060;28;20029;-76
2023/12/25 10:13:30;;;;;;;67.78;23.38;;;7.80;99.90;;;;;;5029473;28;20421;-77
2023/12/25 10:15:55;;;;;;;98.00;36.80;;;7.80;99.90;;;;;;5032840;28;20045;-77
2023/12/25 10:18:22;;;;;;;60.95;22.23;;;7.80;99.90;;;;;;5035039;28;20042;-75
2023/12/25 10:20:57;;;;;;;33.65;13.65;;;7.80;99.90;;;;;;5028442;28;20463;-76
2023/12/25 10:23:34;;;;;;;23.98;9.80;;;7.90;99.90;;;;;;5038216;28;20419;-77
2023/12/25 10:26:03;;;;;;;38.88;15.55;;;7.90;99.90;;;;;;5039239;28;20061;-78
2023/12/25 10:28:30;;;;;;;32.85;13.25;;;7.90;99.90;;;;;;5040399;28;20033;-77
2023/12/25 10:30:59;;;;;;;69.05;25.83;;;7.90;99.90;;;;;;5038039;28;20034;-76
2023/12/25 10:33:26;;;;;;;62.25;23.88;;;8.00;99.90;;;;;;5037444;28;20073;-77
2023/12/25 10:36:09;;;;;;;32.13;12.80;;;8.00;99.90;;;;;;5036745;28;20470;-77
2023/12/25 10:38:42;;;;;;;63.85;23.20;;;8.00;99.90;;;;;;5032783;28;20495;-77
2023/12/25 10:41:25;;;;;;;18.15;7.88;;;8.10;99.90;;;;;;5035917;28;20103;-76
2023/12/25 10:43:55;;;;;;;43.53;15.90;;;8.10;99.90;;;;;;5035300;28;20021;-76
2023/12/25 10:46:23;;;;;;;50.63;18.10;;;8.20;99.90;;;;;;5034065;28;20049;-76
2023/12/25 10:48:51;;;;;;;30.25;12.55;;;8.30;99.90;;;;;;5035141;28;20501;-76
2023/12/25 10:51:32;;;;;;;40.95;16.63;;;8.30;99.90;;;;;;5036306;28;20547;-76
2023/12/25 10:54:02;;;;;;;32.97;12.57;;;8.40;99.90;;;;;;5038910;28;20071;-77
2023/12/25 10:56:31;;;;;;;48.85;19.00;;;8.50;99.90;;;;;;5034148;28;20629;-76
2023/12/25 10:59:03;;;;;;;21.08;11.35;;;8.60;99.90;;;;;;5042116;28;20029;-76
2023/12/25 11:01:31;;;;;;;29.60;12.15;;;8.60;99.90;;;;;;5038749;28;20030;-76
2023/12/25 11:03:57;;;;;;;21.45;7.35;;;8.70;99.90;;;;;;5044547;28;20021;-76
2023/12/25 11:06:23;;;;;;;41.75;17.90;;;8.80;99.90;;;;;;5036024;28;20025;-77
2023/12/25 11:08:49;;;;;;;22.58;9.38;;;8.80;99.90;;;;;;5037620;28;20472;-77
2023/12/25 11:11:16;;;;;;;31.73;13.25;;;8.80;99.90;;;;;;5038913;28;20017;-77
2023/12/25 11:13:42;;;;;;;18.00;7.93;;;8.90;99.90;;;;;;5039193;28;20120;-77
2023/12/25 11:16:08;;;;;;;31.90;14.07;;;8.90;99.90;;;;;;5031049;28;20017;-75
2023/12/25 11:18:37;;;;;;;33.53;15.30;;;8.90;99.90;;;;;;5034313;28;20060;-76
2023/12/25 11:21:05;;;;;;;25.00;10.63;;;8.90;99.90;;;;;;5035232;28;20025;-76
2023/12/25 11:23:33;;;;;;;25.02;12.98;;;9.00;99.90;;;;;;5045228;28;20434;-76
2023/12/25 11:25:59;;;;;;;11.57;6.50;;;9.00;99.90;;;;;;5036374;28;20502;-77
2023/12/25 11:28:26;;;;;;;12.88;5.75;;;9.10;99.90;;;;;;5031236;28;20025;-77
2023/12/25 11:30:52;;;;;;;13.50;7.95;;;9.10;99.90;;;;;;5031157;28;20579;-77
2023/12/25 11:33:19;;;;;;;12.07;6.22;;;9.10;99.90;;;;;;5032544;28;20033;-77
2023/12/25 11:35:45;;;;;;;15.18;6.88;;;9.20;99.90;;;;;;5032114;28;20373;-77
2023/12/25 11:38:18;;;;;;;11.75;6.10;;;9.20;99.90;;;;;;5029891;28;20037;-77
2023/12/25 11:40:50;;;;;;;12.00;6.13;;;9.30;99.90;;;;;;5046327;28;20037;-77
2023/12/25 11:43:18;;;;;;;12.07;6.30;;;9.30;99.90;;;;;;5035417;28;20121;-78
2023/12/25 11:45:45;;;;;;;12.30;6.43;;;9.30;99.90;;;;;;5032689;28;20025;-77
2023/12/25 11:48:11;;;;;;;11.02;5.20;;;9.30;99.90;;;;;;5034373;28;20024;-77
2023/12/25 11:50:37;;;;;;;10.75;5.47;;;9.40;99.90;;;;;;5033968;28;20033;-77
2023/12/25 11:53:03;;;;;;;11.30;6.15;;;9.40;99.90;;;;;;5032924;28;20080;-77
2023/12/25 11:55:30;;;;;;;16.10;8.07;;;9.50;99.90;;;;;;5032904;28;20018;-77
2023/12/25 11:57:56;;;;;;;8.00;4.05;;;9.50;99.90;;;;;;5032655;28;20486;-77
2023/12/25 12:00:27;;;;;;;9.45;4.63;;;9.60;99.90;;;;;;5033349;28;20025;-77
2023/12/25 12:02:53;;;;;;;9.93;5.82;;;9.60;99.90;;;;;;5031989;28;20075;-77
2023/12/25 12:05:19;;;;;;;8.65;4.43;;;9.60;99.90;;;;;;5032548;28;20460;-77
2023/12/25 12:07:45;;;;;;;7.70;5.40;;;9.50;99.90;;;;;;5032432;28;20022;-77
2023/12/25 12:10:12;;;;;;;7.50;3.58;;;9.50;99.90;;;;;;5032093;28;20033;-77
2023/12/25 12:12:38;;;;;;;7.00;4.22;;;9.50;99.90;;;;;;5034204;28;20453;-77
2023/12/25 12:15:05;;;;;;;8.80;4.72;;;9.40;99.90;;;;;;5041677;28;20021;-77
2023/12/25 12:17:32;;;;;;;9.05;5.00;;;9.40;99.90;;;;;;5032860;28;20494;-77
2023/12/25 12:19:59;;;;;;;9.35;5.38;;;9.30;99.90;;;;;;5032035;28;20073;-77
2023/12/25 12:22:25;;;;;;;8.82;4.75;;;9.20;99.90;;;;;;5031162;28;20021;-77
2023/12/25 12:24:52;;;;;;;6.55;5.10;;;9.20;99.90;;;;;;5033548;28;20029;-77
2023/12/25 12:27:20;;;;;;;11.18;5.78;;;9.10;99.90;;;;;;5030482;28;20030;-77
2023/12/25 12:29:49;;;;;;;169.13;55.92;;;8.90;99.90;;;;;;5030499;28;20518;-77
2023/12/25 12:32:15;;;;;;;39.00;18.73;;;8.80;99.90;;;;;;5029833;28;20445;-78
2023/12/25 12:34:42;;;;;;;26.73;12.02;;;8.70;99.90;;;;;;5032658;28;20041;-77
2023/12/25 12:37:10;;;;;;;57.15;24.13;;;8.60;99.90;;;;;;5032460;28;20073;-77
2023/12/25 12:39:36;;;;;;;98.80;40.65;;;8.50;99.90;;;;;;5033690;28;20048;-77
2023/12/25 12:42:09;;;;;;;188.40;71.90;;;8.40;99.90;;;;;;5030250;28;20030;-78
2023/12/25 12:44:36;;;;;;;103.40;41.35;;;8.40;99.90;;;;;;5030415;28;20057;-78
2023/12/25 12:47:02;;;;;;;124.57;47.45;;;8.30;99.90;;;;;;5030007;28;20029;-77